Time;durP1;ratioP1;P1;durP2;ratioP2;P2;SDS_P1;SDS_P2;PMS_P1;PMS_P2;Temp;Humidity;BMP_temperature;BMP_pressure;BME280_temperature;BME280_humidity;BME280_pressure;Samples;Min_cycle;Max_cycle;Signal;HPM_P1;HPM_P2
2022/06/14 00:00:55;;;;;;;1.17;1.00;;;;;;;12.62;55.22;101458.00;5063595;28;20036;-21
2022/06/14 00:03:26;;;;;;;1.48;1.38;;;;;;;12.56;55.24;101458.03;5062851;28;20115;-21
2022/06/14 00:05:51;;;;;;;1.83;1.27;;;;;;;12.51;55.17;101449.25;5064998;28;20390;-21
2022/06/14 00:08:18;;;;;;;1.30;1.20;;;;;;;12.48;55.33;101451.88;5065342;28;20032;-21
2022/06/14 00:10:44;;;;;;;1.77;1.35;;;;;;;12.41;55.33;101449.25;5065359;28;20054;-21
2022/06/14 00:13:10;;;;;;;1.55;1.20;;;;;;;12.42;55.54;101456.34;5049346;28;20020;-21
2022/06/14 00:15:36;;;;;;;1.90;1.30;;;;;;;12.38;55.23;101451.94;5069279;28;20154;-21
2022/06/14 00:18:01;;;;;;;1.48;1.38;;;;;;;12.41;55.36;101457.19;5069867;28;20036;-21
2022/06/14 00:20:26;;;;;;;1.50;1.40;;;;;;;12.31;55.75;101458.16;5070458;28;20074;-21
2022/06/14 00:22:52;;;;;;;1.70;1.60;;;;;;;12.27;55.54;101461.69;5069654;28;20487;-21
2022/06/14 00:25:33;;;;;;;1.50;1.40;;;;;;;12.27;55.38;101461.69;5069783;28;20102;-21
2022/06/14 00:27:59;;;;;;;1.48;1.38;;;;;;;12.21;56.02;101465.22;5070081;28;20032;-21
2022/06/14 00:30:25;;;;;;;1.70;1.60;;;;;;;12.17;55.61;101472.28;5069845;28;20024;-21
2022/06/14 00:32:51;;;;;;;1.20;1.10;;;;;;;12.24;55.47;101474.91;5069152;28;20024;-21
2022/06/14 00:35:16;;;;;;;2.38;1.60;;;;;;;12.22;55.73;101464.34;5052799;28;20040;-21
2022/06/14 00:37:42;;;;;;;1.40;1.20;;;;;;;12.15;55.86;101467.88;5068188;28;20033;-21
2022/06/14 00:40:09;;;;;;;1.20;1.20;;;;;;;12.05;55.98;101467.00;5069519;28;20111;-21
2022/06/14 00:42:35;;;;;;;3.15;1.75;;;;;;;12.02;55.76;101467.00;5048725;28;20025;-21
2022/06/14 00:45:04;;;;;;;1.92;1.10;;;;;;;12.01;56.11;101473.19;5069046;28;20097;-21
2022/06/14 00:47:34;;;;;;;1.85;1.75;;;;;;;12.03;56.15;101481.97;5067854;28;20464;-21
2022/06/14 00:50:01;;;;;;;4.47;1.85;;;;;;;12.01;55.99;101473.19;5050259;28;20460;-21
2022/06/14 00:52:38;;;;;;;2.08;1.67;;;;;;;12.02;55.75;101467.00;5067999;28;20477;-21
2022/06/14 00:55:09;;;;;;;1.77;1.60;;;;;;;11.99;56.03;101472.28;5068093;28;20468;-21
2022/06/14 00:57:57;;;;;;;3.08;1.80;;;;;;;11.96;56.12;101482.84;5069493;28;20032;-21
2022/06/14 01:00:27;;;;;;;2.78;1.42;;;;;;;12.01;56.01;101471.41;5069710;28;20032;-21
2022/06/14 01:02:54;;;;;;;2.63;1.70;;;;;;;12.04;56.22;101475.81;5047754;28;20025;-21
2022/06/14 01:05:24;;;;;;;2.58;1.77;;;;;;;12.02;56.32;101477.56;5068947;28;20043;-21
2022/06/14 01:07:53;;;;;;;2.03;1.80;;;;;;;12.03;56.42;101479.31;5067620;28;20062;-21
2022/06/14 01:10:24;;;;;;;3.20;1.80;;;;;;;12.05;56.58;101481.09;5068503;28;20089;-21
2022/06/14 01:12:51;;;;;;;;;;;;;;;12.02;56.17;101482.84;5067638;28;20136;-21
2022/06/14 01:15:23;;;;;;;2.00;1.80;;;;;;;11.94;56.20;101490.81;5049150;28;20515;-21
2022/06/14 01:18:02;;;;;;;3.22;1.88;;;;;;;11.93;56.24;101487.28;5057777;28;20028;-21
2022/06/14 01:20:28;;;;;;;2.17;1.98;;;;;;;12.00;56.30;101489.94;5048213;28;20021;-21
2022/06/14 01:22:54;;;;;;;2.53;2.33;;;;;;;12.00;56.17;101487.28;5050191;28;20099;-21
2022/06/14 01:25:20;;;;;;;3.63;1.85;;;;;;;11.97;56.31;101489.94;5027058;28;20029;-21
2022/06/14 01:27:45;;;;;;;2.40;1.70;;;;;;;11.99;56.22;101490.78;5031634;28;20017;-21
2022/06/14 01:30:14;;;;;;;2.70;1.83;;;;;;;11.96;56.28;101482.84;5048461;28;20488;-21
2022/06/14 01:32:48;;;;;;;3.03;1.67;;;;;;;11.89;56.54;101485.53;5032358;28;20496;-21
2022/06/14 01:35:17;;;;;;;3.67;2.38;;;;;;;11.91;56.69;101486.41;5029789;28;20032;-21
2022/06/14 01:37:45;;;;;;;2.60;1.77;;;;;;;11.96;56.35;101488.16;5013410;28;20458;-21
2022/06/14 01:40:11;;;;;;;1.92;1.80;;;;;;;11.90;56.49;101482.00;5031539;28;20108;-21
2022/06/14 01:43:19;;;;;;;1.60;1.50;;;;;;;12.02;56.57;101486.41;5031808;28;20115;-21
2022/06/14 01:46:15;;;;;;;2.03;1.83;;;;;;;11.96;56.13;101488.16;4993920;28;20041;-21
2022/06/14 01:48:49;;;;;;;2.22;1.58;;;;;;;11.97;56.78;101485.50;5046429;28;20029;-21
2022/06/14 01:54:23;;;;;;;3.10;1.63;;;;;;;11.83;56.29;101493.47;5029074;28;20400;-22
2022/06/14 01:56:59;;;;;;;3.63;2.22;;;;;;;11.74;56.60;101493.50;5043102;28;20032;-21
2022/06/14 01:59:46;;;;;;;3.17;1.92;;;;;;;11.71;56.75;101493.47;5027911;28;20088;-21
2022/06/14 02:02:37;;;;;;;1.73;1.60;;;;;;;11.68;57.01;101494.38;5040869;28;20021;-21
2022/06/14 02:05:02;;;;;;;3.50;1.95;;;;;;;11.66;56.50;101502.28;5023686;28;20400;-21
2022/06/14 02:07:48;;;;;;;1.60;1.50;;;;;;;11.63;56.61;101494.38;5049289;28;20025;-21
2022/06/14 02:10:18;;;;;;;3.55;1.55;;;;;;;11.58;56.84;101504.06;5046915;28;20330;-21
2022/06/14 02:13:08;;;;;;;2.67;2.20;;;;;;;11.57;56.85;101502.28;5031216;28;20119;-22
2022/06/14 02:15:41;;;;;;;2.35;2.13;;;;;;;11.49;57.05;101504.03;5046861;28;20378;-21
2022/06/14 02:18:24;;;;;;;4.25;1.80;;;;;;;11.50;56.94;101505.78;5043173;28;20037;-21
2022/06/14 02:21:01;;;;;;;3.28;1.92;;;;;;;11.42;56.91;101501.41;5047643;28;20021;-21
2022/06/14 02:23:28;;;;;;;2.30;2.10;;;;;;;11.40;57.10;101507.56;5031031;28;20024;-21
2022/06/14 02:26:01;;;;;;;2.22;2.03;;;;;;;11.38;57.27;101515.50;5025678;28;20052;-21
2022/06/14 02:28:32;;;;;;;2.38;1.55;;;;;;;11.35;56.85;101502.28;5026648;28;20040;-21
2022/06/14 02:31:01;;;;;;;1.98;1.73;;;;;;;11.33;56.63;101511.97;5046445;28;20024;-21
2022/06/14 02:33:39;;;;;;;2.28;2.08;;;;;;;11.29;56.86;101513.72;5044502;28;20036;-21
2022/06/14 02:36:10;;;;;;;2.65;2.00;;;;;;;11.32;56.68;101512.84;5049659;28;20025;-21
2022/06/14 02:39:03;;;;;;;3.05;1.98;;;;;;;11.24;57.20;101511.97;5027359;28;20052;-21
2022/06/14 02:41:45;;;;;;;1.98;1.80;;;;;;;11.22;57.00;101505.78;5044175;28;20033;-21
2022/06/14 02:44:21;;;;;;;1.98;1.80;;;;;;;11.22;57.28;101521.63;5043977;28;20036;-21
2022/06/14 02:46:53;;;;;;;2.78;2.00;;;;;;;11.20;57.00;101521.63;5045110;28;20052;-21
2022/06/14 02:49:35;;;;;;;2.67;1.90;;;;;;;11.12;57.24;101515.44;5031464;28;20025;-21
2022/06/14 02:52:21;;;;;;;3.45;1.77;;;;;;;11.07;57.20;101518.06;5047857;28;20043;-21
2022/06/14 02:54:56;;;;;;;3.13;2.03;;;;;;;11.06;57.02;101505.75;5048090;28;20416;-21
2022/06/14 02:57:26;;;;;;;1.98;1.85;;;;;;;11.07;57.04;101510.16;5045734;28;20028;-21
2022/06/14 03:00:03;;;;;;;2.00;1.70;;;;;;;11.06;57.29;101513.66;5047264;28;20502;-21
2022/06/14 03:02:39;;;;;;;2.20;1.90;;;;;;;11.01;57.31;101508.38;5042958;28;20107;-21
2022/06/14 03:05:17;;;;;;;2.45;2.25;;;;;;;11.02;57.15;101511.91;5026944;28;20405;-22
2022/06/14 03:07:52;;;;;;;1.95;1.80;;;;;;;10.99;57.44;101519.81;5048252;28;20681;-22
2022/06/14 03:10:17;;;;;;;1.95;1.77;;;;;;;10.97;57.25;101511.03;5029681;28;20037;-21
2022/06/14 03:13:04;;;;;;;6.43;1.92;;;;;;;10.89;57.56;101513.63;5015303;28;20017;-21
2022/06/14 03:15:44;;;;;;;1.77;1.67;;;;;;;10.87;57.45;101520.69;5045152;28;20052;-21
2022/06/14 03:18:31;;;;;;;2.10;2.00;;;;;;;10.86;57.70;101530.34;5056003;28;20025;-21
2022/06/14 03:21:02;;;;;;;2.40;1.77;;;;;;;10.86;57.64;101530.34;5063819;28;20028;-21
2022/06/14 03:23:37;;;;;;;2.13;1.95;;;;;;;10.83;57.84;101527.69;5065318;28;20123;-21
2022/06/14 03:26:13;;;;;;;1.88;1.77;;;;;;;10.81;58.01;101515.38;5046516;28;20028;-21
2022/06/14 03:28:44;;;;;;;2.05;1.95;;;;;;;10.76;57.88;101516.22;5045538;28;20024;-21
2022/06/14 03:31:32;;;;;;;2.38;2.00;;;;;;;10.75;57.64;101511.84;5066928;28;20025;-21
2022/06/14 03:34:02;;;;;;;3.35;1.98;;;;;;;10.75;57.68;101510.94;5054338;28;20040;-21
2022/06/14 03:36:28;;;;;;;2.00;1.75;;;;;;;10.77;57.78;101509.19;5041749;28;20150;-21
2022/06/14 03:38:57;;;;;;;1.80;1.70;;;;;;;10.70;57.85;101500.38;5046858;28;20054;-21
2022/06/14 03:41:25;;;;;;;2.72;2.10;;;;;;;10.77;57.61;101504.78;5065803;28;20050;-21
2022/06/14 03:43:51;;;;;;;1.92;1.83;;;;;;;10.74;57.75;101501.28;5064022;28;20044;-21
2022/06/14 03:46:29;;;;;;;1.70;1.50;;;;;;;10.73;57.99;101510.94;5047347;28;20070;-21
2022/06/14 03:49:00;;;;;;;1.80;1.70;;;;;;;10.75;58.00;101511.84;5066422;28;20028;-21
2022/06/14 03:51:44;;;;;;;2.53;2.15;;;;;;;10.78;58.16;101522.38;5065418;28;20021;-21
2022/06/14 03:54:42;;;;;;;2.05;1.85;;;;;;;10.68;58.17;101531.16;5047424;28;20116;-21
2022/06/14 03:57:48;;;;;;;2.08;1.98;;;;;;;10.73;57.89;101528.50;5032125;28;20029;-21
2022/06/14 04:00:49;;;;;;;3.03;1.88;;;;;;;10.73;57.97;101528.50;5013743;28;20037;-21
2022/06/14 04:03:47;;;;;;;2.17;1.90;;;;;;;10.78;58.35;101543.47;5064676;28;20020;-21
2022/06/14 04:06:33;;;;;;;2.10;1.85;;;;;;;10.78;58.25;101538.22;5066247;28;20041;-21
2022/06/14 04:09:39;;;;;;;2.20;1.80;;;;;;;10.84;58.11;101541.78;5064589;28;20053;-21
2022/06/14 04:12:38;;;;;;;2.10;1.98;;;;;;;10.91;58.40;101552.34;5035103;28;20032;-21
2022/06/14 04:15:06;;;;;;;2.08;1.83;;;;;;;10.96;58.08;101535.63;5065791;28;20106;-21
2022/06/14 04:17:43;;;;;;;1.70;1.60;;;;;;;11.00;58.13;101543.56;5057975;28;20033;-22
2022/06/14 04:20:24;;;;;;;1.92;1.73;;;;;;;10.87;58.51;101537.38;5046306;28;20396;-21
2022/06/14 04:23:30;;;;;;;2.05;1.95;;;;;;;10.85;58.38;101536.50;5027725;28;20557;-21
2022/06/14 04:25:59;;;;;;;2.97;1.88;;;;;;;10.95;58.41;101540.06;5046168;28;20477;-21
2022/06/14 04:28:33;;;;;;;2.30;2.10;;;;;;;10.92;58.61;101545.31;5028982;28;20099;-21
2022/06/14 04:31:04;;;;;;;2.08;1.88;;;;;;;10.94;58.39;101548.81;5046428;28;20021;-21
2022/06/14 04:33:35;;;;;;;2.30;2.10;;;;;;;10.98;58.55;101544.44;5029054;28;20020;-21
2022/06/14 04:36:06;;;;;;;1.92;1.83;;;;;;;11.04;58.37;101545.34;5026603;28;20036;-21
2022/06/14 04:38:36;;;;;;;2.25;2.05;;;;;;;11.03;58.70;101540.06;5029194;28;20106;-21
2022/06/14 04:41:12;;;;;;;2.30;2.10;;;;;;;11.10;58.47;101527.78;5043207;28;20036;-21
2022/06/14 04:43:42;;;;;;;2.58;2.20;;;;;;;11.20;58.73;101534.81;5045443;28;20091;-21
2022/06/14 04:46:14;;;;;;;2.47;2.08;;;;;;;11.23;58.71;101541.84;5030440;28;20511;-21
2022/06/14 04:48:48;;;;;;;4.07;2.00;;;;;;;11.27;58.62;101547.16;5026458;28;20078;-21
2022/06/14 04:51:18;;;;;;;4.88;2.53;;;;;;;11.23;58.68;101536.56;5007248;28;20078;-21
2022/06/14 04:53:57;;;;;;;2.43;2.23;;;;;;;11.26;58.70;101534.84;5030633;28;20051;-21
2022/06/14 04:56:25;;;;;;;4.40;2.28;;;;;;;11.31;58.71;101547.16;5043241;28;20060;-21
2022/06/14 04:59:01;;;;;;;3.40;2.30;;;;;;;11.36;58.72;101545.41;5029937;28;20380;-21
2022/06/14 05:01:30;;;;;;;2.75;2.25;;;;;;;11.39;58.69;101550.69;5025683;28;20029;-21
2022/06/14 05:04:04;;;;;;;3.83;1.80;;;;;;;11.44;58.84;101540.16;5048118;28;20108;-21
2022/06/14 05:06:35;;;;;;;2.08;1.98;;;;;;;11.51;58.99;101549.84;5028382;28;20017;-21
2022/06/14 05:09:06;;;;;;;2.50;2.30;;;;;;;11.55;58.85;101543.69;5048195;28;20025;-21
2022/06/14 05:11:37;;;;;;;3.28;2.00;;;;;;;11.63;58.72;101552.50;5047434;28;20033;-21
2022/06/14 05:14:16;;;;;;;2.22;2.00;;;;;;;11.70;59.00;101555.16;5046852;28;20698;-21
2022/06/14 05:16:46;;;;;;;5.05;2.33;;;;;;;11.76;59.23;101555.13;5029850;28;20036;-21
2022/06/14 05:19:35;;;;;;;2.30;2.10;;;;;;;11.81;58.53;101548.09;5075797;28;20033;-21
2022/06/14 05:22:10;;;;;;;2.47;2.28;;;;;;;11.89;59.16;101554.25;5063898;28;20044;-21
2022/06/14 05:24:36;;;;;;;2.38;1.75;;;;;;;11.94;58.99;101549.84;5065637;28;20032;-21
2022/06/14 05:27:22;;;;;;;4.22;2.25;;;;;;;12.01;58.84;101541.91;5075494;28;20029;-21
2022/06/14 05:30:03;;;;;;;3.08;2.17;;;;;;;12.07;59.07;101544.56;5075702;28;20030;-21
2022/06/14 05:32:46;;;;;;;4.55;2.30;;;;;;;12.14;59.29;101541.03;5072633;28;20032;-21
2022/06/14 05:35:32;;;;;;;3.22;1.83;;;;;;;12.22;58.57;101542.78;5057575;28;20451;-21
2022/06/14 05:38:10;;;;;;;4.40;2.28;;;;;;;12.28;58.82;101541.00;5055623;28;20052;-21
2022/06/14 05:40:45;;;;;;;1.80;1.70;;;;;;;12.34;58.58;101537.47;5042726;28;20177;-21
2022/06/14 05:43:14;;;;;;;3.33;2.03;;;;;;;12.40;59.32;101545.41;5068914;28;20040;-21
2022/06/14 05:45:47;;;;;;;2.35;1.90;;;;;;;12.48;59.32;101550.69;5065909;28;20025;-22
2022/06/14 05:48:25;;;;;;;2.60;2.17;;;;;;;12.55;60.11;101548.88;5053793;28;20024;-21
2022/06/14 05:50:54;;;;;;;3.25;2.10;;;;;;;12.59;59.96;101550.63;5060034;28;20496;-22
2022/06/14 05:53:39;;;;;;;2.00;1.90;;;;;;;12.65;61.38;101550.63;5061328;28;20051;-21
2022/06/14 05:56:08;;;;;;;3.58;2.08;;;;;;;12.73;60.74;101552.34;5074140;28;20035;-21
2022/06/14 05:58:41;;;;;;;4.47;2.10;;;;;;;12.80;60.27;101546.13;5077101;28;20039;-21
2022/06/14 06:01:11;;;;;;;3.55;2.42;;;;;;;12.88;61.37;101549.66;5055557;28;20032;-21
2022/06/14 06:03:49;;;;;;;3.25;2.15;;;;;;;12.94;60.90;101560.19;5052057;28;20033;-21
2022/06/14 06:06:35;;;;;;;3.20;2.05;;;;;;;13.02;60.59;101556.63;5052330;28;20384;-21
2022/06/14 06:09:03;;;;;;;4.03;2.10;;;;;;;13.12;60.06;101562.75;5071005;28;20032;-21
2022/06/14 06:11:36;;;;;;;2.97;2.03;;;;;;;13.18;60.96;101563.59;5049865;28;20029;-21
2022/06/14 06:14:08;;;;;;;3.05;2.03;;;;;;;13.26;60.10;101552.06;5055580;28;20039;-21
2022/06/14 06:19:39;;;;;;;2.10;2.00;;;;;;;13.41;59.99;101567.84;5048533;28;20036;-21
2022/06/14 06:22:14;;;;;;;2.13;1.90;;;;;;;13.48;59.45;101560.78;5047972;28;20025;-21
2022/06/14 06:24:58;;;;;;;2.08;1.95;;;;;;;13.53;60.00;101558.09;5046916;28;20090;-21
2022/06/14 06:27:29;;;;;;;2.95;2.40;;;;;;;13.60;59.84;101575.72;5046882;28;20029;-21
2022/06/14 06:30:04;;;;;;;3.97;2.65;;;;;;;13.66;59.57;101567.72;5027802;28;20060;-21
2022/06/14 06:32:31;;;;;;;3.25;2.13;;;;;;;13.72;59.08;101569.47;5047678;28;20037;-21
2022/06/14 06:34:58;;;;;;;3.67;2.03;;;;;;;13.79;58.87;101570.28;5029118;28;20021;-21
2022/06/14 06:38:01;;;;;;;4.15;2.20;;;;;;;13.86;58.97;101572.00;5028552;28;20103;-21
2022/06/14 06:40:26;;;;;;;2.90;1.98;;;;;;;13.94;59.59;101575.44;5030310;28;20103;-21
2022/06/14 06:42:58;;;;;;;2.75;1.92;;;;;;;14.02;59.53;101571.84;5028380;28;20079;-21
2022/06/14 06:45:32;;;;;;;3.30;2.05;;;;;;;14.07;59.26;101578.88;5044220;28;20376;-21
2022/06/14 06:48:07;;;;;;;2.63;2.10;;;;;;;14.19;59.09;101574.34;5044955;28;20020;-21
2022/06/14 06:50:43;;;;;;;3.22;2.20;;;;;;;14.32;59.08;101580.41;5048178;28;20568;-21
2022/06/14 06:53:12;;;;;;;3.60;1.90;;;;;;;14.43;58.65;101578.53;5030280;28;20136;-21
2022/06/14 06:55:57;;;;;;;3.83;2.15;;;;;;;14.54;58.91;101580.19;5046113;28;20094;-21
2022/06/14 06:58:32;;;;;;;2.45;1.80;;;;;;;14.65;58.41;101574.75;5045958;28;20029;-21
2022/06/14 07:01:00;;;;;;;2.97;1.80;;;;;;;14.71;58.74;101572.88;5045807;28;20024;-21
2022/06/14 07:03:39;;;;;;;5.57;2.13;;;;;;;14.86;58.28;101565.66;5048491;28;20021;-21
2022/06/14 07:06:08;;;;;;;4.63;2.00;;;;;;;15.01;58.07;101569.94;5026074;28;20033;-21
2022/06/14 07:09:14;;;;;;;4.20;2.20;;;;;;;15.17;58.09;101567.06;5006566;28;20029;-21
2022/06/14 07:11:45;;;;;;;3.22;2.00;;;;;;;15.30;58.05;101563.31;5005592;28;20029;-21
2022/06/14 07:14:17;;;;;;;2.65;2.45;;;;;;;15.50;57.71;101570.09;5045543;28;20029;-21
2022/06/14 07:17:24;;;;;;;3.00;1.83;;;;;;;15.68;57.21;101566.28;5027023;28;20056;-21
2022/06/14 07:19:57;;;;;;;2.38;1.70;;;;;;;15.86;56.60;101564.22;5044653;28;20064;-21
2022/06/14 07:22:25;;;;;;;5.32;2.03;;;;;;;15.96;56.66;101570.28;5028018;28;20395;-21
2022/06/14 07:25:16;;;;;;;2.45;1.80;;;;;;;16.08;56.35;101569.19;5028314;28;20028;-21
2022/06/14 07:28:00;;;;;;;2.63;1.77;;;;;;;16.21;56.18;101554.75;5045269;28;20022;-21
2022/06/14 07:30:30;;;;;;;2.00;1.83;;;;;;;16.35;56.04;101557.16;5045654;28;20103;-21
2022/06/14 07:32:56;;;;;;;4.72;1.55;;;;;;;16.43;55.80;101559.66;5027250;28;20020;-21
2022/06/14 07:35:27;;;;;;;2.65;1.70;;;;;;;16.54;55.66;101551.47;5045621;28;20021;-21
2022/06/14 07:38:02;;;;;;;2.00;1.83;;;;;;;16.64;55.52;101557.50;5045255;28;20025;-21
2022/06/14 07:40:32;;;;;;;3.40;1.65;;;;;;;16.76;55.44;101551.91;5027530;28;20029;-21
2022/06/14 07:43:23;;;;;;;5.00;2.00;;;;;;;16.92;55.09;101546.25;5032467;28;20021;-21
2022/06/14 07:45:49;;;;;;;2.83;2.08;;;;;;;17.06;55.41;101548.63;5040869;28;20028;-21
2022/06/14 07:48:23;;;;;;;3.45;1.90;;;;;;;17.13;54.97;101549.38;5045127;28;20029;-21
2022/06/14 07:51:00;;;;;;;4.07;1.77;;;;;;;17.20;54.90;101556.31;5030491;28;20103;-22
2022/06/14 07:53:36;;;;;;;3.40;1.73;;;;;;;17.34;54.60;101552.47;5023398;28;20036;-21
2022/06/14 07:56:15;;;;;;;4.07;2.25;;;;;;;17.42;54.35;101553.16;5028022;28;20039;-22
2022/06/14 07:58:48;;;;;;;4.70;1.92;;;;;;;17.52;54.09;101546.69;5028755;28;20036;-21
2022/06/14 08:01:26;;;;;;;1.88;1.30;;;;;;;17.64;53.83;101550.81;5028156;28;20021;-21
2022/06/14 08:04:00;;;;;;;4.85;2.10;;;;;;;17.71;53.61;101543.56;5028966;28;20480;-21
2022/06/14 08:06:33;;;;;;;3.97;1.75;;;;;;;17.83;53.98;101550.38;5049037;28;20029;-21
2022/06/14 08:09:11;;;;;;;5.45;1.95;;;;;;;17.89;53.91;101547.56;5030112;28;20409;-21
2022/06/14 08:11:42;;;;;;;3.65;1.95;;;;;;;18.06;53.93;101540.88;5047550;28;20051;-21
2022/06/14 08:14:11;;;;;;;3.38;1.63;;;;;;;18.27;53.37;101549.28;5047475;28;20024;-21
2022/06/14 08:16:37;;;;;;;2.67;1.60;;;;;;;18.34;53.50;101551.72;5047653;28;20152;-21
2022/06/14 08:19:14;;;;;;;2.22;1.85;;;;;;;18.33;53.09;101549.97;5075502;28;20107;-21
2022/06/14 08:21:43;;;;;;;4.50;2.03;;;;;;;18.38;53.15;101551.63;5057203;28;20384;-21
2022/06/14 08:24:16;;;;;;;2.53;1.70;;;;;;;18.42;52.88;101545.28;5059577;28;20021;-21
2022/06/14 08:27:11;;;;;;;5.63;1.92;;;;;;;18.48;52.94;101553.13;5070138;28;20051;-21
2022/06/14 08:29:42;;;;;;;1.92;1.33;;;;;;;18.63;52.82;101548.25;5051582;28;20041;-21
2022/06/14 08:32:28;;;;;;;5.07;1.90;;;;;;;18.71;52.58;101543.59;5054940;28;20102;-21
2022/06/14 08:35:12;;;;;;;3.13;1.65;;;;;;;18.84;52.25;101550.28;5072495;28;20090;-21
2022/06/14 08:37:46;;;;;;;2.22;1.60;;;;;;;18.93;53.13;101541.13;5059271;28;20086;-21
2022/06/14 08:40:16;;;;;;;2.58;1.73;;;;;;;19.09;52.17;101544.25;5078064;28;20028;-21
2022/06/14 08:42:45;;;;;;;3.08;1.70;;;;;;;19.10;52.11;101539.75;5079715;28;20031;-21
2022/06/14 08:45:15;;;;;;;2.13;1.30;;;;;;;19.10;52.14;101540.63;5075094;28;20028;-21
2022/06/14 08:47:43;;;;;;;2.53;1.60;;;;;;;19.14;51.87;101536.06;5076062;28;20024;-21
2022/06/14 08:50:27;;;;;;;3.03;1.65;;;;;;;19.18;51.83;101539.53;5061313;28;20035;-21
2022/06/14 08:53:12;;;;;;;4.03;2.08;;;;;;;19.20;51.43;101535.00;5070358;28;20033;-21
2022/06/14 08:56:07;;;;;;;4.07;1.60;;;;;;;19.25;51.30;101541.09;5067611;28;20070;-21
2022/06/14 08:58:51;;;;;;;2.88;1.42;;;;;;;19.33;51.69;101535.47;5054239;28;20028;-21
2022/06/14 09:01:31;;;;;;;4.05;1.85;;;;;;;19.42;51.17;101531.63;5063828;28;20024;-22
2022/06/14 09:04:01;;;;;;;2.80;2.13;;;;;;;19.48;51.25;101534.13;5074769;28;20052;-21
2022/06/14 09:07:14;;;;;;;2.17;1.80;;;;;;;19.53;51.10;101526.81;5054580;28;20564;-21
2022/06/14 09:09:58;;;;;;;2.70;1.67;;;;;;;19.63;51.47;101518.47;5003286;28;20749;-21
2022/06/14 09:12:26;;;;;;;1.60;1.50;;;;;;;19.81;52.32;101527.69;5073599;28;20032;-21
2022/06/14 09:15:30;;;;;;;2.03;1.80;;;;;;;19.96;50.86;101512.88;5073462;28;20035;-21
2022/06/14 09:18:37;;;;;;;4.22;1.90;;;;;;;20.19;51.10;101511.19;5033918;28;20040;-21
2022/06/14 09:21:12;;;;;;;3.20;2.17;;;;;;;20.34;49.74;101515.13;5040980;28;20701;-22
2022/06/14 09:23:47;;;;;;;2.65;1.80;;;;;;;20.36;49.15;101514.16;5069771;28;20036;-21
2022/06/14 09:26:27;;;;;;;2.58;1.70;;;;;;;20.35;49.76;101509.72;5070785;28;20024;-21
2022/06/14 09:29:07;;;;;;;4.22;2.55;;;;;;;20.35;50.01;101511.53;5067353;28;20028;-22
2022/06/14 09:31:37;;;;;;;2.35;1.77;;;;;;;20.37;49.85;101513.22;5067051;28;20029;-21
2022/06/14 09:34:06;;;;;;;3.95;1.92;;;;;;;20.42;49.58;101512.16;5066800;28;20047;-21
2022/06/14 09:36:44;;;;;;;3.33;1.73;;;;;;;20.50;49.58;101512.75;5069081;28;20496;-22
2022/06/14 09:39:16;;;;;;;2.42;1.70;;;;;;;20.54;49.51;101513.50;5054628;28;20392;-22
2022/06/14 09:42:11;;;;;;;4.63;1.85;;;;;;;20.60;49.90;101515.94;5066084;28;20028;-22
2022/06/14 09:45:10;;;;;;;3.13;1.75;;;;;;;20.60;49.36;101513.25;5048203;28;20090;-22
2022/06/14 09:48:08;;;;;;;4.20;1.80;;;;;;;20.63;49.68;101518.50;5068932;28;20013;-22
2022/06/14 09:50:59;;;;;;;4.18;2.30;;;;;;;20.71;49.25;101518.22;5054794;28;20488;-21
2022/06/14 09:53:37;;;;;;;3.38;1.80;;;;;;;20.69;49.61;101507.56;5048948;28;20020;-21
2022/06/14 09:56:05;;;;;;;2.40;1.45;;;;;;;20.69;49.02;101517.41;5065265;28;20078;-22
2022/06/14 09:58:44;;;;;;;3.30;1.50;;;;;;;20.75;49.66;101517.16;5046928;28;20043;-22
2022/06/14 10:01:38;;;;;;;3.13;2.05;;;;;;;20.87;49.39;101516.69;5049789;28;20024;-22
2022/06/14 10:04:21;;;;;;;3.13;2.30;;;;;;;21.01;49.22;101518.00;5066382;28;20107;-22
2022/06/14 10:07:14;;;;;;;2.72;1.90;;;;;;;21.06;48.48;101515.09;5068815;28;20031;-22
2022/06/14 10:10:13;;;;;;;3.97;2.10;;;;;;;21.12;48.46;101507.72;5067705;28;20115;-22
2022/06/14 10:13:13;;;;;;;3.35;2.38;;;;;;;21.25;47.99;101505.41;5047446;28;20031;-22
2022/06/14 10:15:58;;;;;;;4.72;2.58;;;;;;;21.34;48.22;101514.84;5068825;28;20091;-22
2022/06/14 10:18:51;;;;;;;2.83;1.75;;;;;;;21.38;47.64;101500.38;5026680;28;20037;-21
2022/06/14 10:21:38;;;;;;;2.92;1.90;;;;;;;21.38;48.17;101511.09;5050063;28;20028;-21
2022/06/14 10:24:15;;;;;;;4.03;1.90;;;;;;;21.37;48.29;101498.63;5048847;28;20024;-21
2022/06/14 10:29:30;;;;;;;3.05;1.88;;;;;;;21.65;48.61;101497.47;5046995;28;20082;-21
2022/06/14 10:31:55;;;;;;;4.78;2.08;;;;;;;21.82;47.48;101493.22;5067827;28;20021;-21
2022/06/14 10:34:30;;;;;;;3.77;1.80;;;;;;;21.86;47.01;101494.84;5069296;28;20514;-21
2022/06/14 10:37:33;;;;;;;4.43;2.53;;;;;;;21.85;47.03;101485.03;5063998;28;20286;-22
2022/06/14 10:40:24;;;;;;;2.50;1.90;;;;;;;21.92;47.25;101488.31;5045332;28;20021;-21
2022/06/14 10:43:08;;;;;;;6.05;2.17;;;;;;;22.00;47.39;101482.59;5065534;28;20025;-21
2022/06/14 10:45:39;;;;;;;3.90;2.33;;;;;;;22.08;48.23;101482.25;5064256;28;20572;-21
2022/06/14 10:48:25;;;;;;;1.90;1.80;;;;;;;22.23;47.92;101481.56;5054119;28;20387;-21
2022/06/14 10:51:21;;;;;;;3.38;2.05;;;;;;;22.49;46.94;101483.97;5068546;28;20107;-21
2022/06/14 10:53:58;;;;;;;4.32;2.28;;;;;;;22.59;46.74;101479.97;5065921;28;20087;-21
2022/06/14 10:56:35;;;;;;;2.58;1.90;;;;;;;22.67;45.84;101475.09;5066857;28;20103;-21
2022/06/14 10:59:38;;;;;;;2.53;1.90;;;;;;;22.76;46.00;101478.28;5050762;28;20025;-21
2022/06/14 11:02:27;;;;;;;2.95;2.30;;;;;;;22.92;46.26;101479.28;5064945;28;20431;-21
2022/06/14 11:05:08;;;;;;;4.07;2.33;;;;;;;23.07;45.29;101472.28;5067364;28;20042;-21
2022/06/14 11:08:16;;;;;;;3.53;2.38;;;;;;;23.15;44.69;101479.97;5068314;28;20019;-21
2022/06/14 11:11:19;;;;;;;3.97;2.42;;;;;;;23.28;44.89;101469.44;5059899;28;20044;-21
2022/06/14 11:13:55;;;;;;;5.45;2.60;;;;;;;23.36;44.38;101466.41;5043725;28;20025;-21
2022/06/14 11:16:46;;;;;;;5.18;2.25;;;;;;;23.39;44.17;101460.88;5067135;28;20024;-21
2022/06/14 11:19:29;;;;;;;3.47;2.13;;;;;;;23.44;45.60;101466.03;5045263;28;20055;-21
2022/06/14 11:22:15;;;;;;;3.75;2.30;;;;;;;23.44;45.33;101457.97;5049760;28;20028;-21
2022/06/14 11:24:54;;;;;;;4.03;2.00;;;;;;;23.40;45.28;101456.34;5068551;28;20038;-21
2022/06/14 11:27:28;;;;;;;2.75;1.98;;;;;;;23.51;44.26;101447.75;5053005;28;20028;-22
2022/06/14 11:30:21;;;;;;;2.38;1.95;;;;;;;23.60;44.67;101449.09;5049261;28;20032;-22
2022/06/14 11:32:53;;;;;;;3.15;1.88;;;;;;;23.67;44.19;101442.41;5021505;28;20040;-22
2022/06/14 11:35:18;;;;;;;4.15;2.33;;;;;;;23.81;43.41;101455.16;5067028;28;20043;-22
2022/06/14 11:38:02;;;;;;;4.07;2.40;;;;;;;23.76;43.89;101458.09;5067743;28;20492;-22
2022/06/14 11:40:39;;;;;;;2.75;2.05;;;;;;;23.75;44.67;101458.16;5066100;28;20036;-22
2022/06/14 11:43:08;;;;;;;4.38;2.08;;;;;;;23.79;43.98;101451.66;5064743;28;20105;-22
2022/06/14 11:45:44;;;;;;;3.58;2.00;;;;;;;23.88;43.75;101442.22;5065885;28;20087;-22
2022/06/14 11:48:31;;;;;;;4.15;2.13;;;;;;;23.94;44.28;101437.38;5050031;28;20079;-22
2022/06/14 11:51:05;;;;;;;2.92;2.08;;;;;;;23.98;44.12;101437.22;5047772;28;20480;-21
2022/06/14 11:53:36;;;;;;;2.72;2.13;;;;;;;24.00;44.02;101438.03;5044466;28;20024;-21
2022/06/14 11:56:33;;;;;;;5.25;1.73;;;;;;;23.99;43.04;101434.44;5056607;28;20031;-21
2022/06/14 11:59:17;;;;;;;3.50;1.98;;;;;;;23.99;43.50;101429.06;5046557;28;20028;-21
2022/06/14 12:01:47;;;;;;;1.95;1.75;;;;;;;24.01;43.20;101423.59;5067776;28;20024;-21
2022/06/14 12:04:30;;;;;;;2.13;1.70;;;;;;;24.02;42.79;101430.72;5066663;28;20067;-21
2022/06/14 12:07:17;;;;;;;2.50;1.65;;;;;;;24.11;43.54;101426.66;5050508;28;20380;-21
2022/06/14 12:10:04;;;;;;;2.85;1.98;;;;;;;24.13;43.22;101422.94;5071087;28;20112;-22
2022/06/14 12:12:32;;;;;;;2.42;1.38;;;;;;;24.20;42.81;101418.97;5057405;28;20036;-22
2022/06/14 12:15:01;;;;;;;4.20;1.83;;;;;;;24.30;42.60;101421.13;5070025;28;20400;-21
2022/06/14 12:17:44;;;;;;;2.53;1.58;;;;;;;24.24;43.40;101429.56;5069667;28;20031;-21
2022/06/14 12:20:13;;;;;;;2.70;1.50;;;;;;;24.17;43.40;101423.66;5069296;28;20502;-22